createdAt,value
2022-12-10T00:01:26.318Z,26.77
2022-12-10T00:03:53.697Z,28.30
2022-12-10T00:06:23.053Z,24.43
2022-12-10T00:08:49.942Z,28.93
2022-12-10T00:11:18.640Z,27.90
2022-12-10T00:13:46.832Z,26.63
2022-12-10T00:16:16.078Z,27.10
2022-12-10T00:18:44.028Z,29.13
2022-12-10T00:21:14.038Z,25.30
2022-12-10T00:23:41.457Z,30.27
2022-12-10T00:26:14.338Z,25.63
2022-12-10T00:28:43.014Z,28.10
2022-12-10T00:31:18.534Z,26.63
2022-12-10T00:33:46.598Z,27.70
2022-12-10T00:36:25.476Z,27.63
2022-12-10T00:38:53.445Z,28.53
2022-12-10T00:41:20.219Z,26.53
2022-12-10T00:43:47.422Z,27.57
2022-12-10T00:46:16.096Z,26.63
2022-12-10T00:48:43.458Z,27.30
2022-12-10T00:51:21.815Z,27.60
2022-12-10T00:53:50.571Z,26.97
2022-12-10T00:56:24.962Z,27.97
2022-12-10T00:58:52.669Z,26.13
2022-12-10T01:01:28.348Z,26.63
2022-12-10T01:03:57.653Z,25.37
2022-12-10T01:06:28.118Z,23.70
2022-12-10T01:08:57.747Z,26.03
2022-12-10T01:11:28.911Z,25.53
2022-12-10T01:13:55.942Z,27.53
2022-12-10T01:16:24.000Z,28.53
2022-12-10T01:18:54.472Z,26.47
2022-12-10T01:21:21.785Z,26.00
2022-12-10T01:23:50.992Z,26.10
2022-12-10T01:26:20.645Z,26.70
2022-12-10T01:28:48.162Z,25.73
2022-12-10T01:31:17.161Z,26.07
2022-12-10T01:33:43.958Z,25.90
2022-12-10T01:36:17.659Z,26.57
2022-12-10T01:38:44.728Z,26.47
2022-12-10T01:41:16.986Z,27.80
2022-12-10T01:43:55.848Z,24.97
2022-12-10T01:46:25.255Z,28.30
2022-12-10T01:48:52.227Z,24.93
2022-12-10T01:51:20.313Z,24.43
2022-12-10T01:53:48.485Z,24.83
2022-12-10T01:56:17.789Z,24.30
2022-12-10T01:58:45.552Z,25.33
2022-12-10T02:01:17.905Z,28.43
2022-12-10T02:03:50.553Z,24.93
2022-12-10T02:06:17.188Z,25.33
2022-12-10T02:09:12.082Z,26.83
2022-12-10T02:11:45.378Z,24.13
2022-12-10T02:14:26.370Z,26.97
2022-12-10T02:17:00.743Z,25.83
2022-12-10T02:19:57.806Z,21.97
2022-12-10T02:22:27.897Z,25.43
2022-12-10T02:24:56.834Z,25.70
2022-12-10T02:27:40.207Z,25.43
2022-12-10T02:30:09.316Z,22.33
2022-12-10T02:35:51.748Z,26.43
2022-12-10T02:38:24.756Z,26.27
2022-12-10T02:40:55.714Z,26.93
2022-12-10T02:43:24.663Z,25.60
2022-12-10T02:45:52.103Z,27.00
2022-12-10T02:48:20.382Z,25.63
2022-12-10T02:50:47.481Z,29.20
2022-12-10T02:53:14.379Z,26.77
2022-12-10T02:56:10.209Z,29.40
2022-12-10T02:59:13.250Z,27.07
2022-12-10T03:01:55.749Z,25.10
2022-12-10T03:04:40.426Z,29.33
2022-12-10T03:07:17.828Z,24.70
2022-12-10T03:09:52.546Z,27.67
2022-12-10T03:12:36.962Z,27.83
2022-12-10T03:15:08.396Z,27.33
2022-12-10T03:17:37.306Z,24.93
2022-12-10T03:20:05.330Z,23.27
2022-12-10T03:22:33.644Z,24.10
2022-12-10T03:25:01.899Z,26.63
2022-12-10T03:27:30.651Z,24.33
2022-12-10T03:29:59.678Z,24.17
2022-12-10T03:32:29.286Z,23.33
2022-12-10T03:34:59.463Z,21.13
2022-12-10T03:37:28.236Z,20.43
2022-12-10T03:39:56.574Z,19.80
2022-12-10T03:42:23.363Z,20.47
2022-12-10T03:44:53.388Z,18.47
2022-12-10T03:47:20.870Z,20.80
2022-12-10T03:49:48.474Z,19.70
2022-12-10T03:52:15.391Z,20.17
2022-12-10T03:54:42.267Z,20.30
2022-12-10T03:57:09.011Z,18.03
2022-12-10T03:59:35.585Z,18.97
2022-12-10T04:02:02.667Z,18.47
2022-12-10T04:04:29.396Z,17.00
2022-12-10T04:06:56.209Z,18.87
2022-12-10T04:09:22.914Z,17.53
2022-12-10T04:11:49.550Z,18.80
2022-12-10T04:14:16.294Z,19.17
2022-12-10T04:16:43.107Z,18.87
2022-12-10T04:19:15.603Z,16.93
2022-12-10T04:21:44.173Z,21.13
2022-12-10T04:24:12.037Z,18.67
2022-12-10T04:26:38.794Z,17.40
2022-12-10T04:29:07.594Z,20.07
2022-12-10T04:31:34.281Z,19.40
2022-12-10T04:34:00.878Z,17.73
2022-12-10T04:36:27.616Z,18.77
2022-12-10T04:38:54.226Z,19.63
2022-12-10T04:41:21.031Z,19.23
2022-12-10T04:43:47.769Z,18.10
2022-12-10T04:46:14.623Z,19.40
2022-12-10T04:48:41.230Z,18.13
2022-12-10T04:51:07.976Z,19.67
2022-12-10T04:53:34.616Z,17.20
2022-12-10T04:56:01.221Z,17.90
2022-12-10T04:58:28.252Z,16.23
2022-12-10T05:00:54.920Z,19.00
2022-12-10T05:03:23.373Z,20.03
2022-12-10T05:05:50.040Z,20.57
2022-12-10T05:08:16.645Z,18.77
2022-12-10T05:10:43.530Z,19.97
2022-12-10T05:13:10.162Z,22.83
2022-12-10T05:15:39.517Z,23.50
2022-12-10T05:18:06.233Z,21.37
2022-12-10T05:20:33.025Z,24.00
2022-12-10T05:22:59.595Z,22.97
2022-12-10T05:25:26.296Z,22.50
2022-12-10T05:27:53.152Z,22.43
2022-12-10T05:30:19.905Z,25.50
2022-12-10T05:32:46.465Z,21.77
2022-12-10T05:35:13.149Z,24.27
2022-12-10T05:37:39.735Z,23.37
2022-12-10T05:40:07.500Z,23.93
2022-12-10T05:42:34.481Z,24.93
2022-12-10T05:45:01.201Z,23.37
2022-12-10T05:47:27.753Z,24.20
2022-12-10T05:49:54.537Z,25.70
2022-12-10T05:52:22.557Z,27.53
2022-12-10T05:54:49.173Z,26.30
2022-12-10T05:57:15.748Z,25.83
2022-12-10T05:59:43.203Z,28.50
2022-12-10T06:02:09.765Z,25.77
2022-12-10T06:04:36.618Z,22.87
2022-12-10T06:07:07.977Z,24.60
2022-12-10T06:09:37.871Z,25.87
2022-12-10T06:12:04.678Z,25.03
2022-12-10T06:14:31.560Z,32.77
2022-12-10T06:16:58.216Z,26.53
2022-12-10T06:19:24.866Z,28.23
2022-12-10T06:21:51.441Z,28.67
2022-12-10T06:24:18.194Z,30.80
2022-12-10T06:26:44.824Z,27.03
2022-12-10T06:29:11.548Z,30.23
2022-12-10T06:31:38.233Z,26.67
2022-12-10T06:34:04.884Z,26.10
2022-12-10T06:36:31.796Z,27.90
2022-12-10T06:38:58.589Z,23.57
2022-12-10T06:41:25.198Z,22.17
2022-12-10T06:43:51.951Z,20.07
2022-12-10T06:46:21.446Z,16.37
2022-12-10T06:48:48.429Z,17.07
2022-12-10T06:51:15.186Z,16.87
2022-12-10T06:53:42.633Z,15.40
2022-12-10T06:56:13.775Z,16.07
2022-12-10T06:58:40.668Z,17.17
2022-12-10T07:01:10.822Z,15.90
2022-12-10T07:03:38.280Z,16.70
2022-12-10T07:06:06.264Z,14.97
2022-12-10T07:08:33.435Z,15.50
2022-12-10T07:11:05.257Z,16.20
2022-12-10T07:13:32.089Z,15.50
2022-12-10T07:15:59.757Z,15.37
2022-12-10T07:18:27.850Z,14.90
2022-12-10T07:20:54.679Z,20.30
2022-12-10T07:23:22.424Z,15.07
2022-12-10T07:25:48.989Z,12.47
2022-12-10T07:28:15.811Z,14.03
2022-12-10T07:30:42.880Z,14.67
2022-12-10T07:33:09.543Z,11.67
2022-12-10T07:35:40.644Z,13.70
2022-12-10T07:38:09.051Z,12.57
2022-12-10T07:40:35.612Z,13.53
2022-12-10T07:43:02.254Z,13.73
2022-12-10T07:45:29.063Z,13.07
2022-12-10T07:47:55.734Z,13.67
2022-12-10T07:50:22.357Z,16.00
2022-12-10T07:52:49.016Z,16.03
2022-12-10T07:55:16.733Z,17.00
2022-12-10T07:57:44.222Z,15.27
2022-12-10T08:00:13.548Z,16.60
2022-12-10T08:02:40.745Z,15.53
2022-12-10T08:05:07.674Z,16.73
2022-12-10T08:07:34.861Z,15.37
2022-12-10T08:10:01.819Z,15.07
2022-12-10T08:12:28.470Z,18.40
2022-12-10T08:14:55.097Z,15.87
2022-12-10T08:17:21.859Z,17.20
2022-12-10T08:19:48.505Z,16.43
2022-12-10T08:22:15.419Z,18.80
2022-12-10T08:24:42.093Z,18.30
2022-12-10T08:27:08.862Z,16.73
2022-12-10T08:29:35.591Z,18.90
2022-12-10T08:32:02.260Z,18.33
2022-12-10T08:34:30.111Z,18.07
2022-12-10T08:36:56.993Z,19.53
2022-12-10T08:39:23.587Z,18.63
2022-12-10T08:41:50.275Z,18.30
2022-12-10T08:44:19.705Z,18.33
2022-12-10T08:46:46.379Z,17.53
2022-12-10T08:49:15.105Z,18.60
2022-12-10T08:51:42.179Z,17.07
2022-12-10T08:54:08.936Z,15.73
2022-12-10T08:56:35.787Z,16.13
2022-12-10T08:59:06.457Z,16.03
2022-12-10T09:01:34.454Z,14.80
2022-12-10T09:04:01.110Z,12.00
2022-12-10T09:06:28.894Z,13.87
2022-12-10T09:08:57.348Z,14.27
2022-12-10T09:11:28.383Z,13.30
2022-12-10T09:13:55.719Z,13.47
2022-12-10T09:16:30.913Z,13.67
2022-12-10T09:18:58.532Z,13.07
2022-12-10T09:21:25.558Z,14.10
2022-12-10T09:23:52.962Z,14.33
2022-12-10T09:26:21.126Z,11.27
2022-12-10T09:28:52.565Z,11.40
2022-12-10T09:31:20.957Z,12.10
2022-12-10T09:33:50.675Z,12.10
2022-12-10T09:36:26.393Z,11.83
2022-12-10T09:39:00.204Z,10.20
2022-12-10T09:41:32.752Z,11.90
2022-12-10T09:44:19.864Z,10.67
2022-12-10T09:46:58.828Z,11.20
2022-12-10T09:49:31.405Z,14.33
2022-12-10T09:52:11.384Z,14.07
2022-12-10T09:54:44.309Z,12.70
2022-12-10T10:00:30.970Z,13.30
2022-12-10T10:03:01.667Z,12.50
2022-12-10T10:05:32.229Z,13.83
2022-12-10T10:08:03.350Z,11.63
2022-12-10T10:10:35.078Z,11.30
2022-12-10T10:13:07.902Z,13.83
2022-12-10T10:15:37.523Z,12.37
2022-12-10T10:18:18.691Z,11.80
2022-12-10T10:20:46.410Z,10.13
2022-12-10T10:23:16.015Z,11.00
2022-12-10T10:25:43.517Z,9.73
2022-12-10T10:28:19.776Z,13.20
2022-12-10T10:30:46.684Z,11.57
2022-12-10T10:33:15.418Z,9.63
2022-12-10T10:35:57.219Z,11.13
2022-12-10T10:38:28.105Z,9.37
2022-12-10T10:41:00.442Z,9.47
2022-12-10T10:43:40.177Z,9.87
2022-12-10T10:46:22.185Z,7.43
2022-12-10T10:48:50.702Z,9.83
2022-12-10T10:51:21.865Z,9.53
2022-12-10T10:53:53.445Z,9.93
2022-12-10T10:56:31.934Z,12.37
2022-12-10T10:58:58.862Z,12.93
2022-12-10T11:01:43.691Z,13.83
2022-12-10T11:04:11.089Z,13.30
2022-12-10T11:06:37.916Z,11.77
2022-12-10T11:09:06.020Z,12.67
2022-12-10T11:11:41.048Z,11.53
2022-12-10T11:14:35.235Z,10.63
2022-12-10T11:17:19.674Z,11.10
2022-12-10T11:20:01.949Z,11.97
2022-12-10T11:22:31.496Z,11.77
2022-12-10T11:24:58.837Z,11.77
2022-12-10T11:27:58.191Z,12.50
2022-12-10T11:30:27.169Z,13.67
2022-12-10T13:24:10.305Z,11.13
2022-12-10T13:27:01.979Z,9.83
2022-12-10T13:29:28.746Z,11.00
2022-12-10T13:32:20.171Z,9.67
2022-12-10T13:34:48.275Z,15.30
2022-12-10T13:37:19.080Z,15.73
2022-12-10T13:40:02.894Z,16.37
2022-12-10T13:42:33.054Z,15.40
2022-12-10T13:45:23.931Z,16.80
2022-12-10T13:47:56.044Z,12.97
2022-12-10T13:50:25.592Z,14.33
2022-12-10T13:53:07.485Z,15.47
2022-12-10T13:55:46.362Z,16.73
2022-12-10T13:58:37.594Z,17.13
2022-12-10T14:01:21.457Z,16.93
2022-12-10T14:03:48.078Z,15.83
2022-12-10T14:06:23.401Z,15.73
2022-12-10T14:08:56.044Z,17.87
2022-12-10T14:11:30.146Z,16.30
2022-12-10T14:14:01.550Z,16.50
2022-12-10T14:16:32.732Z,17.57
2022-12-10T14:19:04.489Z,16.90
2022-12-10T14:21:36.512Z,19.33
2022-12-10T14:24:04.113Z,18.30
2022-12-10T14:26:36.054Z,19.60
2022-12-10T14:29:08.883Z,19.07
2022-12-10T14:31:40.744Z,16.53
2022-12-10T14:34:09.661Z,16.27
2022-12-10T14:36:45.941Z,14.93
2022-12-10T14:39:19.325Z,15.67
2022-12-10T14:41:49.697Z,16.27
2022-12-10T14:44:18.312Z,16.60
2022-12-10T14:46:47.814Z,19.90
2022-12-10T14:49:24.936Z,15.93
2022-12-10T14:51:51.724Z,16.77
2022-12-10T14:54:26.234Z,18.03
2022-12-10T14:56:55.475Z,16.90
2022-12-10T14:59:47.000Z,14.87
2022-12-10T15:02:25.530Z,15.77
2022-12-10T15:04:53.451Z,15.87
2022-12-10T15:07:25.019Z,17.57
2022-12-10T15:09:53.811Z,15.93
2022-12-10T15:12:33.429Z,16.70
2022-12-10T15:15:07.779Z,18.70
2022-12-10T15:18:00.959Z,17.03
2022-12-10T15:20:48.965Z,17.00
2022-12-10T15:23:15.666Z,15.70
2022-12-10T15:25:47.643Z,15.20
2022-12-10T15:28:26.668Z,16.10
2022-12-10T15:30:57.277Z,14.97
2022-12-10T15:33:39.994Z,14.03
2022-12-10T15:36:07.260Z,15.70
2022-12-10T15:38:34.247Z,15.83
2022-12-10T15:41:22.373Z,14.50
2022-12-10T15:43:59.638Z,16.23
2022-12-10T15:46:26.497Z,14.33
2022-12-10T15:48:53.074Z,14.43
2022-12-10T15:51:19.973Z,15.63
2022-12-10T15:53:47.445Z,13.60
2022-12-10T15:56:14.202Z,13.77
2022-12-10T15:58:42.161Z,13.50
2022-12-10T16:01:14.080Z,14.83
2022-12-10T16:03:41.118Z,15.27
2022-12-10T16:06:08.320Z,16.67
2022-12-10T16:08:35.593Z,19.63
2022-12-10T16:11:15.078Z,19.83
2022-12-10T16:13:49.653Z,17.43
2022-12-10T16:16:16.392Z,20.27
2022-12-10T16:18:43.115Z,18.47
2022-12-10T16:21:09.953Z,20.20
2022-12-10T16:23:36.931Z,21.70
2022-12-10T16:26:14.026Z,22.17
2022-12-10T16:28:40.885Z,20.97
2022-12-10T16:31:11.821Z,21.63
2022-12-10T16:33:38.641Z,19.97
2022-12-10T16:36:06.002Z,19.37
2022-12-10T16:38:32.908Z,20.00
2022-12-10T16:41:00.551Z,19.63
2022-12-10T16:43:31.289Z,19.37
2022-12-10T16:45:58.184Z,18.97
2022-12-10T16:48:25.355Z,20.47
2022-12-10T16:50:53.699Z,20.77
2022-12-10T16:53:30.687Z,21.90
2022-12-10T16:55:57.698Z,18.87
2022-12-10T16:58:25.615Z,18.87
2022-12-10T17:00:55.003Z,20.40
2022-12-10T17:03:26.080Z,19.67
2022-12-10T17:05:56.048Z,19.67
2022-12-10T17:08:24.038Z,20.73
2022-12-10T17:10:52.434Z,20.47
2022-12-10T17:13:23.244Z,21.43
2022-12-10T17:15:51.077Z,21.50
2022-12-10T17:18:18.633Z,21.10
2022-12-10T17:20:47.296Z,23.60
2022-12-10T17:23:14.243Z,23.17
2022-12-10T17:25:41.536Z,24.00
2022-12-10T17:28:17.544Z,22.77
2022-12-10T17:30:53.362Z,25.80
2022-12-10T17:33:25.219Z,25.40
2022-12-10T17:35:59.056Z,26.83
2022-12-10T17:38:26.600Z,29.10
2022-12-10T17:40:55.627Z,26.87
2022-12-10T17:43:22.498Z,26.37
2022-12-10T17:45:49.625Z,26.97
2022-12-10T17:48:22.931Z,25.67
2022-12-10T17:50:49.868Z,25.67
2022-12-10T17:53:16.816Z,25.57
2022-12-10T17:55:50.095Z,24.47
2022-12-10T17:58:18.217Z,24.43
2022-12-10T18:00:55.301Z,23.10
2022-12-10T18:03:22.172Z,24.90
2022-12-10T18:05:52.483Z,25.40
2022-12-10T18:08:25.737Z,24.13
2022-12-10T18:10:55.613Z,26.00
2022-12-10T18:13:24.609Z,24.43
2022-12-10T18:15:51.297Z,24.47
2022-12-10T18:18:19.201Z,25.03
2022-12-10T18:20:47.410Z,23.80
2022-12-10T18:23:16.679Z,24.33
2022-12-10T18:25:48.051Z,20.40
2022-12-10T18:28:23.895Z,22.77
2022-12-10T18:30:50.648Z,23.63
2022-12-10T18:33:17.472Z,22.57
2022-12-10T18:35:44.864Z,19.37
2022-12-10T18:38:14.616Z,19.00
2022-12-10T18:40:41.381Z,18.63
2022-12-10T18:43:08.016Z,17.33
2022-12-10T18:45:35.214Z,18.30
2022-12-10T18:48:01.796Z,19.97
2022-12-10T18:50:30.355Z,18.47
2022-12-10T18:52:57.340Z,19.30
2022-12-10T18:55:25.381Z,19.27
2022-12-10T18:58:01.185Z,18.63
2022-12-10T19:00:34.085Z,15.17
2022-12-10T19:03:02.973Z,13.67
2022-12-10T19:05:34.113Z,15.00
2022-12-10T19:08:01.291Z,15.93
2022-12-10T19:10:27.984Z,16.53
2022-12-10T19:12:54.746Z,17.90
2022-12-10T19:15:22.115Z,17.37
2022-12-10T19:17:50.150Z,15.93
2022-12-10T19:20:23.084Z,15.50
2022-12-10T19:22:53.033Z,17.60
2022-12-10T19:25:19.843Z,16.93
2022-12-10T19:27:46.843Z,15.87
2022-12-10T19:30:19.881Z,14.00
2022-12-10T19:32:46.636Z,13.73
2022-12-10T19:35:16.698Z,16.33
2022-12-10T19:37:44.601Z,15.37
2022-12-10T19:40:25.547Z,18.37
2022-12-10T19:42:52.352Z,19.10
2022-12-10T19:45:20.840Z,19.70
2022-12-10T19:47:52.325Z,20.20
2022-12-10T19:50:22.700Z,20.07
2022-12-10T19:52:50.784Z,16.23
2022-12-10T19:55:20.904Z,16.60
2022-12-10T19:57:47.921Z,18.07
2022-12-10T20:00:26.648Z,17.67
2022-12-10T20:02:53.344Z,20.30
2022-12-10T20:05:20.760Z,19.30
2022-12-10T20:07:49.106Z,20.80
2022-12-10T20:10:30.029Z,21.33
2022-12-10T20:12:57.077Z,22.90
2022-12-10T20:15:25.346Z,20.70
2022-12-10T20:17:52.755Z,20.47
2022-12-10T20:20:29.500Z,20.70
2022-12-10T20:22:56.253Z,22.47
2022-12-10T20:25:23.180Z,21.40
2022-12-10T20:27:51.446Z,20.53
2022-12-10T20:30:29.379Z,21.87
2022-12-10T20:32:57.538Z,22.47
2022-12-10T20:35:26.025Z,22.43
2022-12-10T20:37:52.807Z,23.23
2022-12-10T20:40:32.085Z,24.83
2022-12-10T20:42:59.660Z,21.67
2022-12-10T20:45:26.475Z,23.80
2022-12-10T20:47:53.224Z,23.30
2022-12-10T20:50:20.088Z,21.43
2022-12-10T20:52:47.196Z,23.37
2022-12-10T20:55:14.745Z,22.93
2022-12-10T20:57:41.645Z,23.00
2022-12-10T21:00:16.624Z,22.37
2022-12-10T21:02:44.293Z,22.83
2022-12-10T21:05:12.223Z,24.40
2022-12-10T21:07:39.250Z,20.90
2022-12-10T21:10:06.647Z,23.23
2022-12-10T21:12:33.345Z,21.43
2022-12-10T21:15:05.753Z,22.03
2022-12-10T21:17:35.668Z,20.13
2022-12-10T21:20:02.296Z,20.97
2022-12-10T21:22:28.959Z,20.50
2022-12-10T21:24:55.608Z,23.97
2022-12-10T21:27:23.127Z,22.63
2022-12-10T21:29:49.761Z,22.43
2022-12-10T21:32:16.438Z,21.13
2022-12-10T21:34:43.188Z,22.10
2022-12-10T21:37:10.657Z,23.63
2022-12-10T21:39:38.931Z,20.97
2022-12-10T21:42:05.661Z,23.87
2022-12-10T21:44:32.965Z,21.37
2022-12-10T21:46:59.816Z,21.20
2022-12-10T21:49:26.896Z,21.03
2022-12-10T21:51:54.164Z,21.47
2022-12-10T21:54:20.794Z,21.67
2022-12-10T21:56:47.482Z,22.07
2022-12-10T21:59:14.159Z,20.77
2022-12-10T22:01:40.842Z,21.43
2022-12-10T22:04:07.507Z,22.30
2022-12-10T22:06:34.218Z,21.37
2022-12-10T22:09:00.795Z,20.70
2022-12-10T22:11:27.537Z,22.33
2022-12-10T22:13:55.286Z,21.50
2022-12-10T22:16:22.679Z,25.20
2022-12-10T22:18:50.533Z,23.97
2022-12-10T22:21:17.439Z,25.23
2022-12-10T22:23:44.060Z,22.30
2022-12-10T22:26:10.988Z,25.23
2022-12-10T22:28:37.616Z,25.20
2022-12-10T22:31:09.051Z,27.27
2022-12-10T22:33:37.514Z,26.17
2022-12-10T22:36:06.465Z,23.90
2022-12-10T22:38:34.291Z,23.97
2022-12-10T22:41:06.027Z,24.17
2022-12-10T22:43:50.856Z,25.93
2022-12-10T22:46:21.112Z,24.27
2022-12-10T22:48:49.107Z,24.30
2022-12-10T22:51:16.579Z,22.53
2022-12-10T22:53:46.097Z,22.00
2022-12-10T22:56:14.636Z,21.17
2022-12-10T22:58:42.932Z,21.67
2022-12-10T23:01:19.646Z,20.03
2022-12-10T23:03:47.437Z,22.07
2022-12-10T23:06:14.238Z,22.40
2022-12-10T23:08:41.567Z,22.30
2022-12-10T23:11:09.836Z,21.33
2022-12-10T23:13:38.531Z,22.03
2022-12-10T23:16:12.034Z,24.60
2022-12-10T23:18:40.020Z,20.33
2022-12-10T23:21:25.490Z,22.80
2022-12-10T23:23:54.663Z,19.73
2022-12-10T23:26:22.570Z,23.57
2022-12-10T23:28:49.527Z,21.40
2022-12-10T23:31:16.710Z,23.93
2022-12-10T23:33:43.986Z,19.93
2022-12-10T23:36:12.682Z,19.97
2022-12-10T23:38:39.778Z,21.10
2022-12-10T23:41:08.735Z,22.10
2022-12-10T23:43:36.975Z,21.43
2022-12-10T23:46:04.676Z,20.83
2022-12-10T23:48:32.072Z,20.97
2022-12-10T23:51:02.903Z,23.57
2022-12-10T23:53:30.928Z,20.67
2022-12-10T23:55:58.180Z,20.67
2022-12-10T23:58:25.509Z,21.00
